Eatonville, Washington
Current Conditions -  °F | °C
As of 10:58 AM on Monday 20 Oct 2014 (Local Time) from KGRF Reporting Station
Drizzle Drizzle  
Wind Chill: 58°   Ceiling: Unl
Heat Index: 58°   Visibility: 10mi
Dew Point: 56°   Wind: 7mph
Humidity: 91%   Direction: 160°SSE
Pressure: 29.75"   Gusts: NA
Location:  46.87°N, 122.27°W
Report Text: KGRF 201758Z AUTO 16006KT 10SM DZ SCT085 15/13 A2975 RMK AO2 SLP078 P0000 60003 T01470133 10149 20139 50010 $
Loading
Personal Weather Stations






























Interactive Weather Map
Tropical Storm Tracking
New forecast layout! Learn more

10-Day Weather Forecast

Advertisements
Track Severe Weather on mobile